createdAt,value
2023-03-21T00:01:05.332Z,95987.63
2023-03-21T00:03:35.337Z,95983.94
2023-03-21T00:06:06.810Z,95995.06
2023-03-21T00:08:35.091Z,95981.75
2023-03-21T00:11:04.366Z,95979.09
2023-03-21T00:13:33.653Z,95977.81
2023-03-21T00:16:17.200Z,95980.69
2023-03-21T00:18:54.881Z,95976.66
2023-03-21T00:24:16.856Z,95977.47
2023-03-21T00:26:45.251Z,95977.97
2023-03-21T00:29:14.135Z,95973.94
2023-03-21T00:31:42.479Z,95975.06
2023-03-21T00:36:41.609Z,95968.38
2023-03-21T00:39:09.940Z,95969.44
2023-03-21T00:41:42.819Z,95960.41
2023-03-21T00:44:13.918Z,95967.00
2023-03-21T00:46:51.696Z,95961.13
2023-03-21T00:49:33.737Z,95960.81
2023-03-21T00:52:27.498Z,95957.34
2023-03-21T00:54:53.130Z,95957.03
2023-03-21T00:57:29.325Z,95958.06
2023-03-21T01:00:07.787Z,95950.84
2023-03-21T01:02:38.044Z,95950.28
2023-03-21T01:05:08.805Z,95942.53
2023-03-21T01:07:37.078Z,95943.56
2023-03-21T01:10:08.158Z,95947.84
2023-03-21T01:12:37.084Z,95946.00
2023-03-21T01:15:05.917Z,95942.53
2023-03-21T01:17:34.722Z,95946.22
2023-03-21T01:20:06.279Z,95947.84
2023-03-21T01:22:36.227Z,95947.84
2023-03-21T01:25:21.209Z,95939.88
2023-03-21T01:27:51.532Z,95951.56
2023-03-21T01:30:23.932Z,95953.63
2023-03-21T01:32:53.884Z,95944.03
2023-03-21T01:35:22.930Z,95936.56
2023-03-21T01:37:53.421Z,95937.38
2023-03-21T01:40:23.126Z,95937.63
2023-03-21T01:42:53.919Z,95927.47
2023-03-21T01:46:00.625Z,95927.94
2023-03-21T01:48:46.624Z,95923.94
2023-03-21T01:51:16.150Z,95929.25
2023-03-21T01:53:58.106Z,95909.03
2023-03-21T01:56:29.413Z,95924.41
2023-03-21T01:59:07.068Z,95925.94
2023-03-21T02:02:01.975Z,95925.28
2023-03-21T02:04:31.257Z,95919.34
2023-03-21T02:07:23.267Z,95918.78
2023-03-21T02:09:56.625Z,95917.63
2023-03-21T02:12:25.538Z,95916.03
2023-03-21T02:14:54.032Z,95912.56
2023-03-21T02:17:31.172Z,95902.41
2023-03-21T02:20:27.589Z,95901.59
2023-03-21T02:23:09.538Z,95906.59
2023-03-21T02:26:01.608Z,95904.97
2023-03-21T02:28:31.393Z,95897.28
2023-03-21T02:31:09.582Z,95896.22
2023-03-21T02:34:03.071Z,95885.31
2023-03-21T02:36:48.112Z,95885.09
2023-03-21T02:39:20.045Z,95894.09
2023-03-21T02:41:49.784Z,95886.13
2023-03-21T02:44:33.176Z,95893.06
2023-03-21T02:47:06.434Z,95883.25
2023-03-21T02:49:40.235Z,95886.94
2023-03-21T02:52:17.092Z,95889.38
2023-03-21T02:54:52.446Z,95886.69
2023-03-21T02:57:29.209Z,95891.78
2023-03-21T03:00:16.477Z,95888.78
2023-03-21T03:02:48.886Z,95891.44
2023-03-21T03:05:21.874Z,95889.59
2023-03-21T03:08:00.201Z,95892.25
2023-03-21T03:10:35.546Z,95890.16
2023-03-21T03:13:10.044Z,95893.06
2023-03-21T03:15:41.923Z,95887.19
2023-03-21T03:18:12.758Z,95893.31
2023-03-21T03:20:47.309Z,95891.44
2023-03-21T03:23:22.034Z,95895.72
2023-03-21T03:25:53.250Z,95889.84
2023-03-21T03:28:26.391Z,95898.63
2023-03-21T03:31:08.151Z,95896.75
2023-03-21T03:33:46.905Z,95892.75
2023-03-21T03:36:30.482Z,95897.56
2023-03-21T03:39:02.343Z,95897.81
2023-03-21T03:41:56.276Z,95903.69
2023-03-21T03:44:20.756Z,95908.22
2023-03-21T03:46:59.401Z,95911.09
2023-03-21T03:49:29.182Z,95912.47
2023-03-21T03:51:59.290Z,95913.53
2023-03-21T03:54:37.684Z,95915.94
2023-03-21T03:57:07.057Z,95913.28
2023-03-21T03:59:37.109Z,95917.56
2023-03-21T04:02:20.426Z,95919.41
2023-03-21T04:04:53.445Z,95919.16
2023-03-21T04:07:23.054Z,95917.56
2023-03-21T04:09:55.437Z,95919.66
2023-03-21T04:12:24.086Z,95922.31
2023-03-21T04:15:21.584Z,95917.22
2023-03-21T04:17:55.906Z,95922.00
2023-03-21T04:20:36.088Z,95925.94
2023-03-21T04:23:05.305Z,95917.16
2023-03-21T04:25:38.727Z,95926.41
2023-03-21T04:28:08.990Z,95921.81
2023-03-21T04:31:00.420Z,95915.69
2023-03-21T04:33:32.495Z,95907.16
2023-03-21T04:36:01.559Z,95903.13
2023-03-21T04:38:34.017Z,95915.38
2023-03-21T04:41:06.915Z,95911.91
2023-03-21T04:43:35.345Z,95906.81
2023-03-21T04:46:04.130Z,95909.72
2023-03-21T04:48:32.546Z,95902.56
2023-03-21T04:51:02.609Z,95908.38
2023-03-21T04:53:31.513Z,95906.19
2023-03-21T04:56:00.786Z,95904.78
2023-03-21T04:58:30.760Z,95905.59
2023-03-21T05:01:02.629Z,95904.78
2023-03-21T05:03:34.537Z,95898.69
2023-03-21T05:06:03.216Z,95890.72
2023-03-21T05:08:31.538Z,95892.56
2023-03-21T05:10:59.901Z,95894.66
2023-03-21T05:13:30.779Z,95894.66
2023-03-21T05:15:59.401Z,95897.88
2023-03-21T05:18:28.266Z,95895.47
2023-03-21T05:21:08.023Z,95901.84
2023-03-21T05:23:38.408Z,95898.91
2023-03-21T05:26:08.219Z,95892.56
2023-03-21T05:28:48.230Z,95905.03
2023-03-21T05:31:17.222Z,95903.19
2023-03-21T05:33:47.996Z,95904.78
2023-03-21T05:36:19.789Z,95893.38
2023-03-21T05:38:48.245Z,95908.38
2023-03-21T05:41:19.207Z,95898.28
2023-03-21T05:43:49.893Z,95903.34
2023-03-21T05:46:18.435Z,95903.13
2023-03-21T05:48:47.239Z,95901.28
2023-03-21T05:51:43.450Z,95901.59
2023-03-21T05:54:16.803Z,95898.72
2023-03-21T05:56:48.042Z,95903.53
2023-03-21T05:59:27.221Z,95903.63
2023-03-21T06:01:58.076Z,95905.25
2023-03-21T06:04:26.511Z,95911.91
2023-03-21T06:06:54.954Z,95913.75
2023-03-21T06:09:25.052Z,95908.44
2023-03-21T06:11:57.884Z,95912.25
2023-03-21T06:14:32.119Z,95916.03
2023-03-21T06:17:15.982Z,95926.16
2023-03-21T06:19:52.148Z,95912.16
2023-03-21T06:22:25.972Z,95910.06
2023-03-21T06:24:54.385Z,95912.00
2023-03-21T06:27:23.311Z,95913.13
2023-03-21T06:29:58.055Z,95918.53
2023-03-21T06:32:27.629Z,95914.41
2023-03-21T06:35:00.030Z,95914.63
2023-03-21T06:37:28.431Z,95912.63
2023-03-21T06:39:57.766Z,95911.41
2023-03-21T06:42:27.026Z,95913.31
2023-03-21T06:45:03.434Z,95915.50
2023-03-21T06:47:31.907Z,95916.38
2023-03-21T06:50:01.005Z,95916.44
2023-03-21T06:52:29.796Z,95908.03
2023-03-21T06:54:58.334Z,95904.94
2023-03-21T06:57:27.344Z,95911.97
2023-03-21T06:59:55.964Z,95920.25
2023-03-21T07:02:27.425Z,95924.84
2023-03-21T07:05:04.893Z,95928.38
2023-03-21T07:07:33.678Z,95927.06
2023-03-21T07:10:01.984Z,95923.91
2023-03-21T07:12:35.960Z,95930.91
2023-03-21T07:15:18.410Z,95925.59
2023-03-21T07:17:49.220Z,95931.28
2023-03-21T07:20:18.322Z,95931.41
2023-03-21T07:22:46.724Z,95938.66
2023-03-21T07:25:17.553Z,95929.59
2023-03-21T07:27:46.532Z,95923.84
2023-03-21T07:30:15.161Z,95910.88
2023-03-21T07:32:43.554Z,95911.50
2023-03-21T07:35:14.694Z,95911.59
2023-03-21T07:37:43.613Z,95911.53
2023-03-21T07:40:16.443Z,95913.41
2023-03-21T07:42:44.765Z,95919.88
2023-03-21T07:45:16.585Z,95911.06
2023-03-21T07:47:47.312Z,95907.53
2023-03-21T07:50:17.132Z,95914.00
2023-03-21T07:52:46.272Z,95907.69
2023-03-21T07:55:14.586Z,95910.28
2023-03-21T07:57:42.914Z,95906.16
2023-03-21T08:00:12.722Z,95906.19
2023-03-21T08:02:44.410Z,95903.00
2023-03-21T08:05:12.772Z,95910.22
2023-03-21T08:07:42.480Z,95904.66
2023-03-21T08:10:12.161Z,95903.69
2023-03-21T08:12:40.529Z,95913.34
2023-03-21T08:15:10.187Z,95914.47
2023-03-21T08:17:39.977Z,95918.81
2023-03-21T08:20:10.288Z,95916.47
2023-03-21T08:22:38.723Z,95913.03
2023-03-21T08:25:10.218Z,95917.84
2023-03-21T08:27:38.602Z,95915.72
2023-03-21T08:30:08.053Z,95912.25
2023-03-21T08:32:38.708Z,95914.16
2023-03-21T08:35:08.596Z,95910.13
2023-03-21T08:37:37.131Z,95908.53
2023-03-21T08:40:09.004Z,95920.06
2023-03-21T08:42:38.839Z,95912.81
2023-03-21T08:45:08.904Z,95918.97
2023-03-21T08:47:37.250Z,95918.44
2023-03-21T08:50:06.975Z,95924.06
2023-03-21T08:52:35.315Z,95920.84
2023-03-21T08:55:03.772Z,95919.53
2023-03-21T08:57:32.366Z,95926.47
2023-03-21T09:00:02.135Z,95918.16
2023-03-21T09:02:30.545Z,95918.19
2023-03-21T09:04:59.206Z,95919.75
2023-03-21T09:07:27.999Z,95927.25
2023-03-21T09:10:14.936Z,95921.06
2023-03-21T09:12:44.586Z,95919.47
2023-03-21T09:15:14.734Z,95910.88
2023-03-21T09:17:44.110Z,95911.34
2023-03-21T09:20:18.908Z,95911.25
2023-03-21T09:22:47.771Z,95902.09
2023-03-21T09:25:16.533Z,95911.66
2023-03-21T09:27:45.963Z,95911.47
2023-03-21T09:30:16.453Z,95912.25
2023-03-21T09:32:48.372Z,95908.25
2023-03-21T09:35:18.849Z,95903.19
2023-03-21T09:37:47.398Z,95898.34
2023-03-21T09:40:19.761Z,95903.75
2023-03-21T09:42:53.860Z,95889.25
2023-03-21T09:45:27.290Z,95886.50
2023-03-21T09:47:57.186Z,95884.66
2023-03-21T09:50:27.553Z,95880.00
2023-03-21T09:52:58.298Z,95877.06
2023-03-21T09:55:31.172Z,95881.13
2023-03-21T09:58:04.430Z,95879.84
2023-03-21T10:00:37.478Z,95868.16
2023-03-21T10:03:07.462Z,95880.81
2023-03-21T10:05:40.516Z,95880.44
2023-03-21T10:08:10.851Z,95876.25
2023-03-21T10:10:41.688Z,95879.25
2023-03-21T10:13:14.773Z,95876.63
2023-03-21T10:15:44.530Z,95877.66
2023-03-21T10:18:15.024Z,95873.78
2023-03-21T10:20:43.692Z,95876.72
2023-03-21T10:23:14.811Z,95869.66
2023-03-21T10:25:44.126Z,95875.59
2023-03-21T10:28:16.392Z,95865.25
2023-03-21T10:30:46.528Z,95867.78
2023-03-21T10:33:16.507Z,95857.06
2023-03-21T10:35:46.681Z,95863.78
2023-03-21T10:38:17.052Z,95860.84
2023-03-21T10:40:45.440Z,95861.91
2023-03-21T10:43:18.885Z,95859.44
2023-03-21T10:45:49.153Z,95859.69
2023-03-21T10:48:18.026Z,95857.13
2023-03-21T10:50:48.991Z,95846.56
2023-03-21T10:53:19.652Z,95847.78
2023-03-21T10:55:48.704Z,95855.06
2023-03-21T10:58:18.938Z,95853.44
2023-03-21T11:00:49.540Z,95855.06
2023-03-21T11:03:22.950Z,95854.41
2023-03-21T11:05:55.069Z,95847.03
2023-03-21T11:08:23.389Z,95846.88
2023-03-21T11:10:56.461Z,95849.25
2023-03-21T11:13:26.820Z,95844.47
2023-03-21T11:15:58.536Z,95842.03
2023-03-21T11:18:27.603Z,95839.53
2023-03-21T11:20:56.792Z,95839.38
2023-03-21T11:23:27.713Z,95837.13
2023-03-21T11:25:56.024Z,95839.31
2023-03-21T11:28:25.495Z,95840.28
2023-03-21T11:30:56.627Z,95827.19
2023-03-21T11:33:27.894Z,95839.13
2023-03-21T11:36:00.788Z,95840.09
2023-03-21T11:38:30.903Z,95830.69
2023-03-21T11:40:59.717Z,95831.69
2023-03-21T11:43:29.807Z,95828.06
2023-03-21T11:46:01.212Z,95820.31
2023-03-21T11:48:29.584Z,95821.44
2023-03-21T11:51:00.730Z,95820.03
2023-03-21T11:53:40.507Z,95827.84
2023-03-21T11:56:24.345Z,95821.41
2023-03-21T11:59:08.965Z,95813.00
2023-03-21T12:01:43.456Z,95813.59
2023-03-21T12:04:22.360Z,95807.28
2023-03-21T12:06:52.876Z,95796.50
2023-03-21T12:09:28.190Z,95804.94
2023-03-21T12:12:11.463Z,95799.88
2023-03-21T12:14:45.873Z,95795.16
2023-03-21T12:17:22.404Z,95788.03
2023-03-21T12:20:12.071Z,95785.31
2023-03-21T12:22:46.479Z,95788.69
2023-03-21T12:25:16.622Z,95778.25
2023-03-21T12:27:48.884Z,95776.88
2023-03-21T12:30:34.044Z,95782.78
2023-03-21T12:33:16.371Z,95763.31
2023-03-21T12:35:51.305Z,95770.53
2023-03-21T12:38:21.891Z,95761.03
2023-03-21T12:41:06.828Z,95753.41
2023-03-21T12:43:43.901Z,95755.44
2023-03-21T12:46:14.950Z,95756.13
2023-03-21T12:48:45.420Z,95758.19
2023-03-21T12:51:14.791Z,95752.34
2023-03-21T12:53:49.794Z,95748.00
2023-03-21T12:56:20.769Z,95735.66
2023-03-21T12:58:51.313Z,95742.97
2023-03-21T13:01:19.897Z,95742.09
2023-03-21T13:03:52.352Z,95735.34
2023-03-21T13:06:20.865Z,95732.91
2023-03-21T13:08:50.129Z,95736.94
2023-03-21T13:11:20.657Z,95732.22
2023-03-21T13:13:51.664Z,95736.13
2023-03-21T13:16:21.123Z,95730.38
2023-03-21T13:18:56.443Z,95730.69
2023-03-21T13:21:31.278Z,95727.03
2023-03-21T13:24:03.926Z,95726.16
2023-03-21T13:26:38.123Z,95725.03
2023-03-21T13:29:14.854Z,95722.63
2023-03-21T13:31:52.055Z,95719.03
2023-03-21T13:34:24.065Z,95725.31
2023-03-21T13:36:52.713Z,95718.00
2023-03-21T13:39:22.242Z,95711.84
2023-03-21T13:41:50.730Z,95709.63
2023-03-21T13:44:24.170Z,95711.50
2023-03-21T13:46:56.605Z,95707.75
2023-03-21T13:49:31.940Z,95705.13
2023-03-21T13:52:01.110Z,95702.59
2023-03-21T13:54:32.449Z,95707.47
2023-03-21T13:57:01.649Z,95705.91
2023-03-21T13:59:41.306Z,95708.59
2023-03-21T14:02:29.939Z,95699.94
2023-03-21T14:05:06.559Z,95702.91
2023-03-21T14:07:36.800Z,95696.47
2023-03-21T14:10:07.040Z,95697.19
2023-03-21T14:12:38.400Z,95693.50
2023-03-21T14:15:16.255Z,95690.06
2023-03-21T14:17:51.274Z,95688.97
2023-03-21T14:20:22.939Z,95683.75
2023-03-21T14:22:51.602Z,95685.41
2023-03-21T14:25:21.049Z,95681.34
2023-03-21T14:27:50.186Z,95677.19
2023-03-21T14:30:22.863Z,95672.28
2023-03-21T14:32:51.571Z,95664.16
2023-03-21T14:35:21.341Z,95666.31
2023-03-21T14:37:50.289Z,95658.38
2023-03-21T14:40:23.609Z,95660.06
2023-03-21T14:42:52.219Z,95656.69
2023-03-21T14:45:21.737Z,95667.19
2023-03-21T14:47:57.857Z,95665.91
2023-03-21T14:50:33.018Z,95656.59
2023-03-21T14:53:01.618Z,95659.28
2023-03-21T14:55:29.879Z,95658.00
2023-03-21T14:57:58.293Z,95650.81
2023-03-21T15:00:27.437Z,95647.63
2023-03-21T15:02:56.032Z,95649.03
2023-03-21T15:05:27.813Z,95647.13
2023-03-21T15:07:57.545Z,95654.59
2023-03-21T15:10:26.332Z,95646.19
2023-03-21T15:12:55.538Z,95637.56
2023-03-21T15:15:27.181Z,95643.34
2023-03-21T15:17:56.065Z,95640.63
2023-03-21T15:20:26.367Z,95640.34
2023-03-21T15:22:56.492Z,95638.53
2023-03-21T15:25:27.003Z,95642.69
2023-03-21T15:27:55.729Z,95639.31
2023-03-21T15:30:25.645Z,95639.97
2023-03-21T15:32:54.006Z,95635.50
2023-03-21T15:35:23.509Z,95633.19
2023-03-21T15:37:57.419Z,95641.56
2023-03-21T15:40:27.742Z,95640.81
2023-03-21T15:43:06.710Z,95636.63
2023-03-21T15:45:35.182Z,95625.75
2023-03-21T15:48:04.225Z,95638.47
2023-03-21T15:50:36.744Z,95627.03
2023-03-21T15:53:08.274Z,95623.91
2023-03-21T15:55:41.880Z,95629.06
2023-03-21T15:58:13.273Z,95628.56
2023-03-21T16:00:42.767Z,95622.19
2023-03-21T16:03:20.790Z,95618.56
2023-03-21T16:06:11.048Z,95624.81
2023-03-21T16:08:45.214Z,95622.69
2023-03-21T16:11:19.331Z,95620.91
2023-03-21T16:13:47.679Z,95620.97
2023-03-21T16:16:18.945Z,95614.34
2023-03-21T16:18:47.295Z,95617.34
2023-03-21T16:21:17.150Z,95622.50
2023-03-21T16:23:46.912Z,95618.78
2023-03-21T16:26:16.695Z,95619.41
2023-03-21T16:28:45.046Z,95621.81
2023-03-21T16:31:14.573Z,95624.28
2023-03-21T16:33:43.620Z,95628.94
2023-03-21T16:36:15.575Z,95630.38
2023-03-21T16:38:43.875Z,95629.63
2023-03-21T16:41:13.982Z,95636.75
2023-03-21T16:43:43.994Z,95639.50
2023-03-21T16:46:15.845Z,95646.81
2023-03-21T16:48:44.906Z,95641.78
2023-03-21T16:51:14.972Z,95641.63
2023-03-21T16:53:43.266Z,95649.78
2023-03-21T16:56:16.031Z,95651.78
2023-03-21T16:58:44.558Z,95652.13
2023-03-21T17:01:15.765Z,95655.72
2023-03-21T17:03:44.355Z,95647.47
2023-03-21T17:06:14.915Z,95652.06
2023-03-21T17:08:43.251Z,95644.88
2023-03-21T17:11:12.266Z,95658.59
2023-03-21T17:13:42.327Z,95651.69
2023-03-21T17:16:11.251Z,95660.28
2023-03-21T17:18:39.573Z,95646.94
2023-03-21T17:21:12.724Z,95656.13
2023-03-21T17:23:41.017Z,95659.63
2023-03-21T17:26:10.895Z,95655.38
2023-03-21T17:28:39.190Z,95652.50
2023-03-21T17:31:13.571Z,95655.75
2023-03-21T17:33:41.950Z,95655.78
2023-03-21T17:36:14.233Z,95648.56
2023-03-21T17:38:43.026Z,95661.97
2023-03-21T17:41:12.595Z,95655.31
2023-03-21T17:43:41.067Z,95664.97
2023-03-21T17:46:12.968Z,95658.84
2023-03-21T17:48:41.399Z,95655.38
2023-03-21T17:51:12.835Z,95655.66
2023-03-21T17:53:41.879Z,95665.56
2023-03-21T17:56:13.766Z,95653.28
2023-03-21T17:58:42.110Z,95656.28
2023-03-21T18:01:11.879Z,95665.41
2023-03-21T18:03:40.291Z,95654.19
2023-03-21T18:06:14.166Z,95660.66
2023-03-21T18:08:42.615Z,95656.38
2023-03-21T18:11:12.756Z,95653.97
2023-03-21T18:13:41.132Z,95658.56
2023-03-21T18:16:11.349Z,95654.31
2023-03-21T18:18:41.544Z,95652.72
2023-03-21T18:21:11.252Z,95652.50
2023-03-21T18:23:39.607Z,95658.66
2023-03-21T18:26:08.103Z,95660.81
2023-03-21T18:28:39.642Z,95656.03
2023-03-21T18:31:15.540Z,95658.44
2023-03-21T18:33:48.702Z,95655.78
2023-03-21T18:36:24.505Z,95652.31
2023-03-21T18:38:55.171Z,95649.38
2023-03-21T18:41:23.632Z,95652.28
2023-03-21T18:44:05.410Z,95655.75
2023-03-21T18:46:47.503Z,95653.34
2023-03-21T18:52:06.294Z,95653.09
2023-03-21T18:54:35.667Z,95653.63
2023-03-21T18:59:52.299Z,95656.84
2023-03-21T19:02:20.997Z,95655.53
2023-03-21T19:04:50.798Z,95655.53
2023-03-21T19:07:20.056Z,95661.69
2023-03-21T19:10:10.649Z,95658.72
2023-03-21T19:12:36.644Z,95664.31
2023-03-21T19:15:06.706Z,95656.28
2023-03-21T19:18:26.168Z,95665.09
2023-03-21T19:20:24.977Z,95668.00
2023-03-21T19:22:53.613Z,95673.09
2023-03-21T19:25:21.937Z,95673.31
2023-03-21T19:27:52.062Z,95668.22
2023-03-21T19:30:21.535Z,95675.47
2023-03-21T19:32:49.865Z,95666.63
2023-03-21T19:35:18.769Z,95666.63
2023-03-21T19:37:48.645Z,95667.69
2023-03-21T19:40:16.958Z,95669.84
2023-03-21T19:42:45.924Z,95671.19
2023-03-21T19:45:14.306Z,95664.50
2023-03-21T19:47:42.697Z,95661.84
2023-03-21T19:53:01.734Z,95660.00
2023-03-21T19:55:30.978Z,95665.91
2023-03-21T19:57:59.654Z,95663.78
2023-03-21T20:00:27.988Z,95669.13
2023-03-21T20:02:56.916Z,95664.59
2023-03-21T20:05:25.789Z,95655.78
2023-03-21T20:07:55.329Z,95660.88
2023-03-21T20:10:27.569Z,95656.31
2023-03-21T20:12:56.199Z,95654.72
2023-03-21T20:15:26.715Z,95659.00
2023-03-21T20:17:57.303Z,95661.69
2023-03-21T20:20:25.702Z,95652.31
2023-03-21T20:23:07.052Z,95659.00
2023-03-21T20:25:40.533Z,95661.69
2023-03-21T20:28:24.334Z,95659.56
2023-03-21T20:30:54.674Z,95654.22
2023-03-21T20:33:23.127Z,95654.75
2023-03-21T20:38:45.688Z,95659.56
2023-03-21T20:41:15.451Z,95652.09
2023-03-21T20:44:39.154Z,95655.53
2023-03-21T20:46:32.711Z,95650.50
2023-03-21T20:49:01.406Z,95642.19
2023-03-21T20:52:44.592Z,95635.78
2023-03-21T20:54:19.042Z,95634.97
2023-03-21T20:56:49.104Z,95646.44
2023-03-21T20:59:25.873Z,95639.50
2023-03-21T21:01:55.904Z,95639.50
2023-03-21T21:04:41.251Z,95650.47
2023-03-21T21:07:16.267Z,95651.53
2023-03-21T21:09:44.835Z,95640.31
2023-03-21T21:12:15.041Z,95641.66
2023-03-21T21:14:43.675Z,95647.78
2023-03-21T21:18:01.634Z,95652.34
2023-03-21T21:20:01.701Z,95653.91
2023-03-21T21:22:30.031Z,95659.53
2023-03-21T21:24:58.329Z,95660.56
2023-03-21T21:27:28.795Z,95661.69
2023-03-21T21:29:57.641Z,95661.13
2023-03-21T21:32:27.340Z,95659.25
2023-03-21T21:34:56.318Z,95660.06
2023-03-21T21:37:25.106Z,95660.06
2023-03-21T21:39:54.161Z,95660.88
2023-03-21T21:42:22.692Z,95671.81
2023-03-21T21:44:52.388Z,95670.75
2023-03-21T21:47:20.968Z,95669.41
2023-03-21T21:49:49.285Z,95669.94
2023-03-21T21:52:22.064Z,95671.00
2023-03-21T21:54:50.730Z,95667.28
2023-03-21T21:57:20.193Z,95664.88
2023-03-21T21:59:53.902Z,95656.06
2023-03-21T22:02:26.803Z,95651.22
2023-03-21T22:04:55.686Z,95647.50
2023-03-21T22:07:24.921Z,95646.97
2023-03-21T22:09:53.364Z,95633.63
2023-03-21T22:12:21.726Z,95630.41
2023-03-21T22:14:50.657Z,95637.06
2023-03-21T22:17:19.010Z,95644.25
2023-03-21T22:20:04.165Z,95648.00
2023-03-21T22:22:33.297Z,95648.00
2023-03-21T22:25:01.661Z,95646.66
2023-03-21T22:27:30.607Z,95634.38
2023-03-21T22:30:04.746Z,95639.72
2023-03-21T22:32:33.115Z,95638.09
2023-03-21T22:35:03.510Z,95635.72
2023-03-21T22:37:32.517Z,95636.22
2023-03-21T22:40:00.850Z,95626.63
2023-03-21T22:42:29.464Z,95628.75
2023-03-21T22:44:57.796Z,95630.88
2023-03-21T22:47:26.330Z,95636.50
2023-03-21T22:49:54.642Z,95635.94
2023-03-21T22:52:24.385Z,95641.81
2023-03-21T22:54:52.672Z,95645.78
2023-03-21T22:57:21.313Z,95644.97
2023-03-21T22:59:49.698Z,95650.31
2023-03-21T23:02:18.040Z,95653.50
2023-03-21T23:04:46.529Z,95658.31
2023-03-21T23:07:14.967Z,95651.88
2023-03-21T23:09:45.068Z,95655.31
2023-03-21T23:12:14.829Z,95640.13
2023-03-21T23:14:43.101Z,95645.69
2023-03-21T23:17:12.574Z,95651.53
2023-03-21T23:19:41.354Z,95652.84
2023-03-21T23:22:10.084Z,95654.97
2023-03-21T23:24:38.382Z,95652.31
2023-03-21T23:27:08.224Z,95637.09
2023-03-21T23:29:36.562Z,95646.97
2023-03-21T23:32:05.440Z,95640.75
2023-03-21T23:34:33.717Z,95639.97
2023-03-21T23:37:02.508Z,95646.88
2023-03-21T23:39:33.655Z,95639.38
2023-03-21T23:42:02.022Z,95638.84
2023-03-21T23:44:31.667Z,95639.13
2023-03-21T23:46:59.991Z,95641.19
2023-03-21T23:49:29.069Z,95634.78
2023-03-21T23:51:57.719Z,95633.94
2023-03-21T23:54:26.692Z,95631.25
2023-03-21T23:56:55.450Z,95624.03
2023-03-21T23:59:23.714Z,95621.09
